Portada
METAR-TAF:

METAR-TAF

Aeropuertos :

Aeropuerto Internacional de Baréin

Baréin, Bahréin

latitud: 26-16N, longitud: 050-39E, altitud: 2 m

Observación

El informe se hizo hace 21 minutos, a las 08:30 UTC
Viento 18 kt del noroeste
Temperatura 28°C
Humedad 66%
Presión 1019 hPa
Visibilidad 10 km o más
Nubes dispersas a una altura de 2500 ft

METAR: OBBI 170830Z 32018KT 9999 SCT025 28/21 Q1019 NOSIG

Hora: 11:51 (08:51 UTC)

Pronóstico

El informe se hizo hace 3 horas y 51 minutos, a las 05:00 UTC
Pronóstico válido del 17 a las 06 UTC al 18 a las 12 UTC
Viento 15 kt del norte-noroeste con ráfagas de 25 kt
Visibilidad: 8000 m
Nubes dispersas a una altura de 2500 ft

TAF: OBBI 170500Z 1706/1812 33015G25KT 8000 SCT025

Observaciones y pronósticos meteorológicos de más de 4000 aeropuertos (mensajes METAR y TAF).

Los puntos amarillos y rojos representan las estaciones disponibles.

Ponga el ratón en el punto deseado para ver el nombre de la estación.

Haga clic para ver las observaciones y los pronósticos meteorológicos.

Para cambiar el mapa : haga clic en los botones verdes con una cruz de color negro para hacer un zoom, en el botón verde con un guión para alejar o en las flechas verdes para mapas adyacentes.


METAR-TAF: